CheckWX is a tool to help pilots better visualize weather data.  It is not intended as a substitute for an official pre-flight weather briefing.

02:44:05 UTC

KGLH TAF
Greenville Mid-Delta Airport
Greenville, Mississippi, USA
KGLH 252321Z 2600/2624 20008KT P6SM VCSH BKN080 FM260100 13007KT P6SM SHRA SCT015 BKN050 FM260600 16005KT 6SM BR VCSH BKN008 OVC025 FM261500 18005KT P6SM FEW008 BKN025

Aug-26@
00:00 UTC

Aug-26 @ 00:00 UTC

Aug-26@
01:00 UTC

Aug-26 @ 01:00 UTC

KGLH 252321Z 2600/2624 20008KT P6SM VCSH BKN080

Expired

Wind
  • 200° at 8 KTS
Cloud Levels
  • Broken at 8,000' AGL

Aug-26@
01:00 UTC

Aug-26 @ 01:00 UTC

Aug-26@
06:00 UTC

Aug-26 @ 06:00 UTC

FM260100 13007KT P6SM SHRA SCT015 BKN050

From

From Standard forecast or significant change

Wind
  • 130° at 7 KTS
Conditions
Rain
Cloud Levels
  • Scattered at 1,500' AGL
  • Broken at 5,000' AGL

Aug-26@
06:00 UTC

Aug-26 @ 06:00 UTC

Aug-26@
15:00 UTC

Aug-26 @ 15:00 UTC

FM260600 16005KT 6SM BR VCSH BKN008 OVC025

From

From Standard forecast or significant change

Wind
  • 160° at 5 KTS
Conditions
Mist
Cloud Levels
  • Broken at 800' AGL
  • Overcast at 2,500' AGL

Aug-26@
15:00 UTC

Aug-26 @ 15:00 UTC

Aug-27@
00:00 UTC

Aug-27 @ 00:00 UTC

FM261500 18005KT P6SM FEW008 BKN025

From

From Standard forecast or significant change

Wind
  • 180° at 5 KTS
Cloud Levels
  • Few at 800' AGL
  • Broken at 2,500' AGL